createdAt,value
2023-05-07T00:01:00.743Z,27.71
2023-05-07T00:03:27.992Z,28.00
2023-05-07T00:05:54.596Z,27.90
2023-05-07T00:08:21.564Z,27.96
2023-05-07T00:10:48.124Z,27.97
2023-05-07T00:13:14.731Z,27.78
2023-05-07T00:15:41.422Z,27.87
2023-05-07T00:18:08.056Z,27.88
2023-05-07T00:20:36.218Z,27.96
2023-05-07T00:23:03.078Z,28.19
2023-05-07T00:25:29.738Z,28.10
2023-05-07T00:27:56.312Z,28.23
2023-05-07T00:30:22.839Z,28.30
2023-05-07T00:32:50.023Z,28.40
2023-05-07T00:35:16.784Z,28.51
2023-05-07T00:37:43.354Z,28.34
2023-05-07T00:40:10.685Z,28.34
2023-05-07T00:42:37.756Z,28.44
2023-05-07T00:45:04.663Z,28.41
2023-05-07T00:47:32.120Z,28.42
2023-05-07T00:49:59.443Z,28.71
2023-05-07T00:52:27.081Z,28.72
2023-05-07T00:54:54.545Z,28.81
2023-05-07T00:57:22.429Z,28.71
2023-05-07T00:59:49.556Z,28.51
2023-05-07T01:02:16.315Z,28.54
2023-05-07T01:04:42.870Z,28.85
2023-05-07T01:07:10.637Z,29.25
2023-05-07T01:09:37.816Z,29.34
2023-05-07T01:12:05.232Z,28.97
2023-05-07T01:14:33.989Z,29.12
2023-05-07T01:17:00.930Z,29.02
2023-05-07T01:19:31.147Z,29.12
2023-05-07T01:22:04.558Z,28.95
2023-05-07T01:24:37.243Z,28.65
2023-05-07T01:27:05.576Z,28.76
2023-05-07T01:29:33.949Z,28.61
2023-05-07T01:32:01.801Z,28.59
2023-05-07T01:34:31.420Z,28.75
2023-05-07T01:37:00.332Z,28.77
2023-05-07T01:39:29.084Z,28.65
2023-05-07T01:42:00.607Z,28.79
2023-05-07T01:44:28.367Z,28.89
2023-05-07T01:46:55.939Z,28.57
2023-05-07T01:49:22.598Z,28.83
2023-05-07T01:51:49.372Z,28.81
2023-05-07T01:54:16.363Z,28.87
2023-05-07T01:56:42.987Z,28.96
2023-05-07T01:59:09.987Z,29.04
2023-05-07T02:01:36.621Z,29.29
2023-05-07T02:04:03.500Z,29.02
2023-05-07T02:06:31.683Z,28.55
2023-05-07T02:09:03.394Z,28.58
2023-05-07T02:11:29.912Z,28.34
2023-05-07T02:13:56.751Z,28.33
2023-05-07T02:16:24.141Z,28.51
2023-05-07T02:18:51.755Z,28.19
2023-05-07T02:21:18.371Z,28.21
2023-05-07T02:23:45.136Z,27.86
2023-05-07T02:26:12.106Z,27.97
2023-05-07T02:28:38.703Z,28.18
2023-05-07T02:31:06.889Z,28.29
2023-05-07T02:33:35.750Z,27.94
2023-05-07T02:36:10.878Z,27.88
2023-05-07T02:38:44.274Z,27.51
2023-05-07T02:41:10.822Z,27.75
2023-05-07T02:43:37.465Z,27.98
2023-05-07T02:46:08.654Z,28.03
2023-05-07T02:48:39.117Z,28.18
2023-05-07T02:51:06.409Z,28.44
2023-05-07T02:53:34.313Z,28.00
2023-05-07T02:56:02.170Z,28.02
2023-05-07T02:58:28.759Z,27.93
2023-05-07T03:00:58.352Z,27.84
2023-05-07T03:03:38.874Z,27.71
2023-05-07T03:06:05.680Z,27.64
2023-05-07T03:08:32.439Z,27.74
2023-05-07T03:10:59.130Z,27.78
2023-05-07T03:13:26.162Z,27.68
2023-05-07T03:15:53.120Z,27.73
2023-05-07T03:18:19.796Z,27.86
2023-05-07T03:20:47.169Z,27.40
2023-05-07T03:23:13.772Z,27.45
2023-05-07T03:25:40.442Z,27.27
2023-05-07T03:28:07.280Z,27.22
2023-05-07T03:30:48.983Z,27.56
2023-05-07T03:33:15.544Z,27.54
2023-05-07T03:35:42.376Z,27.79
2023-05-07T03:38:10.001Z,27.82
2023-05-07T03:40:38.170Z,27.60
2023-05-07T03:43:05.556Z,27.64
2023-05-07T03:45:35.287Z,27.86
2023-05-07T03:48:12.835Z,27.90
2023-05-07T03:50:39.510Z,28.11
2023-05-07T03:53:07.100Z,28.08
2023-05-07T03:55:38.055Z,28.07
2023-05-07T03:58:05.121Z,27.85
2023-05-07T04:00:34.507Z,27.76
2023-05-07T04:03:01.191Z,27.88
2023-05-07T04:05:31.434Z,27.90
2023-05-07T04:08:03.038Z,27.33
2023-05-07T04:10:36.697Z,27.52
2023-05-07T04:13:07.750Z,27.48
2023-05-07T04:15:36.518Z,27.41
2023-05-07T04:18:05.190Z,27.74
2023-05-07T04:20:35.557Z,27.96
2023-05-07T04:23:03.434Z,28.00
2023-05-07T04:25:30.532Z,28.05
2023-05-07T04:28:05.184Z,28.25
2023-05-07T04:30:32.653Z,28.19
2023-05-07T04:32:59.336Z,28.08
2023-05-07T04:35:28.805Z,27.38
2023-05-07T04:37:55.887Z,27.62
2023-05-07T04:40:22.458Z,27.77
2023-05-07T04:42:49.247Z,27.83
2023-05-07T04:45:16.070Z,27.83
2023-05-07T04:47:45.349Z,27.88
2023-05-07T04:50:13.042Z,28.00
2023-05-07T04:52:41.066Z,27.88
2023-05-07T04:55:08.460Z,27.97
2023-05-07T04:57:40.410Z,28.05
2023-05-07T05:00:09.609Z,27.96
2023-05-07T05:02:38.107Z,28.29
2023-05-07T05:05:06.073Z,28.55
2023-05-07T05:07:32.686Z,28.45
2023-05-07T05:09:59.891Z,28.71
2023-05-07T05:12:26.570Z,28.81
2023-05-07T05:14:53.380Z,29.04
2023-05-07T05:17:19.983Z,28.87
2023-05-07T05:19:46.630Z,28.90
2023-05-07T05:22:13.466Z,29.12
2023-05-07T05:24:39.968Z,29.24
2023-05-07T05:27:06.720Z,29.02
2023-05-07T05:29:33.297Z,29.09
2023-05-07T05:32:00.263Z,29.17
2023-05-07T05:34:28.623Z,29.09
2023-05-07T05:36:56.220Z,28.81
2023-05-07T05:39:24.149Z,28.58
2023-05-07T05:41:51.063Z,28.53
2023-05-07T05:44:17.811Z,28.06
2023-05-07T05:46:44.633Z,28.10
2023-05-07T05:49:11.204Z,28.23
2023-05-07T05:51:38.569Z,27.95
2023-05-07T05:54:05.634Z,27.94
2023-05-07T05:56:33.078Z,28.39
2023-05-07T05:58:59.789Z,28.25
2023-05-07T06:01:26.611Z,28.16
2023-05-07T06:03:55.129Z,28.35
2023-05-07T06:06:22.304Z,28.65
2023-05-07T06:08:48.906Z,28.32
2023-05-07T06:11:21.082Z,28.64
2023-05-07T06:13:47.634Z,28.62
2023-05-07T06:16:15.187Z,28.62
2023-05-07T06:18:41.802Z,28.51
2023-05-07T06:21:08.860Z,28.83
2023-05-07T06:23:36.130Z,29.07
2023-05-07T06:26:03.078Z,29.04
2023-05-07T06:28:37.956Z,28.97
2023-05-07T06:31:30.991Z,29.01
2023-05-07T06:34:07.126Z,28.77
2023-05-07T06:36:37.299Z,28.71
2023-05-07T06:39:15.710Z,28.54
2023-05-07T06:41:42.202Z,28.49
2023-05-07T06:44:17.174Z,28.27
2023-05-07T06:46:47.960Z,28.11
2023-05-07T06:49:15.512Z,28.43
2023-05-07T06:51:42.467Z,28.57
2023-05-07T06:54:09.103Z,28.46
2023-05-07T06:56:38.319Z,28.86
2023-05-07T06:59:05.981Z,28.97
2023-05-07T07:01:36.908Z,28.83
2023-05-07T07:04:04.880Z,28.95
2023-05-07T07:06:32.749Z,28.91
2023-05-07T07:09:01.502Z,28.97
2023-05-07T07:11:28.860Z,28.62
2023-05-07T07:13:55.654Z,28.64
2023-05-07T07:16:23.259Z,28.81
2023-05-07T07:18:52.085Z,28.93
2023-05-07T07:21:20.190Z,28.87
2023-05-07T07:23:47.126Z,28.67
2023-05-07T07:26:13.832Z,28.69
2023-05-07T07:28:45.634Z,28.56
2023-05-07T07:31:14.498Z,28.54
2023-05-07T07:33:41.555Z,28.40
2023-05-07T07:36:08.851Z,28.43
2023-05-07T07:38:36.346Z,28.10
2023-05-07T07:41:03.979Z,28.22
2023-05-07T07:43:30.896Z,29.07
2023-05-07T07:45:57.715Z,29.77
2023-05-07T07:48:24.983Z,30.14
2023-05-07T07:50:54.560Z,29.88
2023-05-07T07:53:21.480Z,30.48
2023-05-07T07:55:48.336Z,30.48
2023-05-07T07:58:18.038Z,30.31
2023-05-07T08:00:44.711Z,30.69
2023-05-07T08:03:13.249Z,30.40
2023-05-07T08:05:44.346Z,29.93
2023-05-07T08:08:11.162Z,29.85
2023-05-07T08:10:40.147Z,29.65
2023-05-07T08:13:13.889Z,29.77
2023-05-07T08:15:42.038Z,29.60
2023-05-07T08:18:08.809Z,29.51
2023-05-07T08:20:40.249Z,29.52
2023-05-07T08:23:09.665Z,29.94
2023-05-07T08:25:38.443Z,29.67
2023-05-07T08:28:06.042Z,29.53
2023-05-07T08:30:33.820Z,29.77
2023-05-07T08:33:01.497Z,29.67
2023-05-07T08:35:28.962Z,29.56
2023-05-07T08:37:55.641Z,29.42
2023-05-07T08:40:27.648Z,29.38
2023-05-07T08:42:57.902Z,29.55
2023-05-07T08:45:25.275Z,29.71
2023-05-07T08:47:59.143Z,29.67
2023-05-07T08:50:29.412Z,29.61
2023-05-07T08:52:57.446Z,29.39
2023-05-07T08:55:25.262Z,29.56
2023-05-07T08:57:53.581Z,29.75
2023-05-07T09:00:20.435Z,29.91
2023-05-07T09:02:50.530Z,29.86
2023-05-07T09:05:17.400Z,30.09
2023-05-07T09:07:44.177Z,30.27
2023-05-07T09:10:13.980Z,30.16
2023-05-07T09:12:42.312Z,30.26
2023-05-07T09:15:11.145Z,29.93
2023-05-07T09:17:38.603Z,29.80
2023-05-07T09:20:09.327Z,29.92
2023-05-07T09:22:38.066Z,29.99
2023-05-07T09:25:09.397Z,30.21
2023-05-07T09:27:38.299Z,30.08
2023-05-07T09:30:08.200Z,30.07
2023-05-07T09:32:38.843Z,30.33
2023-05-07T09:35:07.130Z,30.39
2023-05-07T09:37:34.584Z,30.35
2023-05-07T09:40:01.590Z,30.71
2023-05-07T09:42:30.654Z,30.84
2023-05-07T09:45:01.027Z,30.76
2023-05-07T09:47:34.219Z,30.55
2023-05-07T09:50:06.469Z,30.81
2023-05-07T09:52:36.155Z,31.13
2023-05-07T09:55:06.962Z,30.98
2023-05-07T09:57:35.691Z,30.99
2023-05-07T10:00:07.212Z,31.27
2023-05-07T10:02:50.585Z,31.44
2023-05-07T10:05:23.453Z,31.36
2023-05-07T10:07:51.950Z,31.27
2023-05-07T10:10:19.550Z,31.71
2023-05-07T10:12:48.337Z,31.29
2023-05-07T10:15:22.385Z,31.25
2023-05-07T10:17:54.610Z,31.31
2023-05-07T10:20:22.528Z,31.47
2023-05-07T10:22:51.689Z,31.20
2023-05-07T10:25:29.184Z,31.28
2023-05-07T10:28:00.627Z,31.29
2023-05-07T10:31:07.086Z,31.51
2023-05-07T10:33:40.591Z,31.48
2023-05-07T10:36:08.967Z,31.65
2023-05-07T10:38:36.102Z,31.94
2023-05-07T10:41:05.551Z,32.11
2023-05-07T10:43:42.839Z,32.35
2023-05-07T10:46:13.139Z,32.05
2023-05-07T10:49:01.378Z,32.17
2023-05-07T10:51:33.410Z,32.21
2023-05-07T10:54:10.978Z,32.13
2023-05-07T10:56:44.082Z,32.21
2023-05-07T10:59:21.913Z,32.14
2023-05-07T11:01:56.045Z,32.19
2023-05-07T11:04:32.491Z,32.07
2023-05-07T11:07:26.342Z,31.95
2023-05-07T11:10:05.300Z,32.02
2023-05-07T11:12:51.829Z,32.43
2023-05-07T11:15:38.602Z,32.05
2023-05-07T11:18:12.913Z,32.45
2023-05-07T11:20:58.350Z,32.54
2023-05-07T11:23:41.405Z,32.33
2023-05-07T11:26:16.550Z,32.38
2023-05-07T11:28:44.637Z,32.38
2023-05-07T11:31:12.574Z,32.45
2023-05-07T11:33:40.909Z,32.28
2023-05-07T11:36:12.258Z,32.55
2023-05-07T11:38:44.904Z,32.47
2023-05-07T11:41:11.493Z,32.32
2023-05-07T11:43:38.175Z,32.42
2023-05-07T11:46:12.608Z,32.52
2023-05-07T11:48:39.992Z,32.43
2023-05-07T11:51:09.867Z,32.49
2023-05-07T11:53:38.725Z,32.54
2023-05-07T11:56:09.240Z,32.49
2023-05-07T11:58:36.173Z,32.75
2023-05-07T12:01:02.715Z,32.74
2023-05-07T12:03:31.710Z,32.69
2023-05-07T12:06:00.575Z,32.80
2023-05-07T12:08:27.212Z,32.59
2023-05-07T12:10:55.001Z,32.56
2023-05-07T12:13:26.980Z,32.83
2023-05-07T12:15:55.190Z,33.13
2023-05-07T12:18:22.779Z,32.89
2023-05-07T12:20:50.124Z,32.92
2023-05-07T12:23:18.697Z,33.08
2023-05-07T12:25:48.489Z,32.99
2023-05-07T12:28:19.364Z,33.27
2023-05-07T12:30:51.298Z,33.26
2023-05-07T12:33:19.364Z,33.12
2023-05-07T12:35:45.923Z,33.33
2023-05-07T12:38:14.041Z,33.29
2023-05-07T12:40:43.389Z,33.18
2023-05-07T12:43:18.537Z,32.94
2023-05-07T12:45:47.370Z,33.08
2023-05-07T12:48:14.104Z,32.93
2023-05-07T12:50:41.025Z,32.99
2023-05-07T12:53:09.000Z,32.99
2023-05-07T12:55:47.529Z,33.30
2023-05-07T12:58:22.172Z,33.19
2023-05-07T13:00:50.815Z,32.78
2023-05-07T13:03:26.820Z,32.86
2023-05-07T13:05:58.837Z,32.65
2023-05-07T13:08:32.758Z,32.48
2023-05-07T13:11:01.331Z,32.59
2023-05-07T13:13:30.189Z,32.21
2023-05-07T13:15:58.514Z,32.24
2023-05-07T13:18:27.018Z,32.44
2023-05-07T13:20:56.660Z,32.48
2023-05-07T13:23:23.909Z,32.59
2023-05-07T13:25:51.356Z,32.62
2023-05-07T13:28:18.073Z,32.74
2023-05-07T13:30:45.121Z,32.77
2023-05-07T13:33:11.883Z,32.74
2023-05-07T13:35:38.634Z,32.53
2023-05-07T13:38:05.784Z,32.52
2023-05-07T13:40:32.513Z,32.52
2023-05-07T13:43:02.697Z,32.51
2023-05-07T13:45:33.173Z,32.51
2023-05-07T13:47:59.950Z,32.60
2023-05-07T13:50:28.021Z,32.74
2023-05-07T13:52:54.645Z,32.38
2023-05-07T13:55:23.368Z,32.62
2023-05-07T13:57:57.810Z,32.52
2023-05-07T14:00:25.326Z,32.21
2023-05-07T14:02:51.981Z,32.50
2023-05-07T14:05:18.996Z,32.64
2023-05-07T14:07:46.634Z,32.38
2023-05-07T14:10:14.233Z,32.16
2023-05-07T14:12:41.536Z,32.19
2023-05-07T14:15:08.716Z,32.23
2023-05-07T14:17:35.620Z,32.25
2023-05-07T14:20:02.234Z,32.12
2023-05-07T14:22:28.811Z,31.98
2023-05-07T14:25:05.886Z,31.97
2023-05-07T14:27:33.326Z,31.73
2023-05-07T14:29:59.826Z,31.73
2023-05-07T14:32:26.409Z,31.88
2023-05-07T14:34:52.976Z,31.78
2023-05-07T14:37:20.761Z,31.91
2023-05-07T14:39:49.861Z,31.91
2023-05-07T14:42:17.263Z,31.78
2023-05-07T14:44:45.585Z,31.78
2023-05-07T14:47:12.102Z,31.21
2023-05-07T14:49:38.920Z,31.44
2023-05-07T14:52:07.010Z,31.53
2023-05-07T14:54:38.912Z,31.65
2023-05-07T14:57:06.747Z,31.69
2023-05-07T14:59:33.444Z,31.75
2023-05-07T15:02:00.319Z,31.69
2023-05-07T15:04:26.993Z,31.61
2023-05-07T15:06:55.066Z,30.97
2023-05-07T15:09:21.624Z,29.62
2023-05-07T15:11:48.136Z,29.11
2023-05-07T15:14:14.700Z,28.79
2023-05-07T15:16:41.316Z,29.12
2023-05-07T15:19:07.967Z,28.81
2023-05-07T15:21:35.765Z,28.43
2023-05-07T15:24:02.987Z,28.53
2023-05-07T15:26:30.144Z,28.62
2023-05-07T15:28:59.740Z,28.53
2023-05-07T15:31:26.678Z,28.62
2023-05-07T15:33:53.372Z,28.71
2023-05-07T15:36:21.188Z,28.62
2023-05-07T15:38:47.774Z,28.93
2023-05-07T15:41:14.358Z,29.10
2023-05-07T15:43:46.913Z,29.16
2023-05-07T15:46:17.918Z,29.23
2023-05-07T15:48:44.541Z,29.08
2023-05-07T15:51:11.381Z,29.26
2023-05-07T15:53:38.585Z,29.62
2023-05-07T15:56:05.446Z,29.64
2023-05-07T15:58:32.094Z,29.59
2023-05-07T16:00:58.914Z,29.77
2023-05-07T16:03:27.537Z,29.70
2023-05-07T16:05:54.446Z,29.36
2023-05-07T16:08:21.175Z,29.30
2023-05-07T16:10:47.735Z,29.11
2023-05-07T16:13:14.494Z,29.12
2023-05-07T16:15:41.152Z,29.19
2023-05-07T16:18:07.822Z,29.40
2023-05-07T16:20:34.980Z,29.69
2023-05-07T16:23:02.056Z,29.88
2023-05-07T16:25:28.666Z,29.82
2023-05-07T16:27:55.880Z,29.59
2023-05-07T16:30:22.425Z,29.74
2023-05-07T16:32:49.070Z,29.71
2023-05-07T16:35:15.746Z,29.71
2023-05-07T16:37:42.444Z,29.67
2023-05-07T16:40:09.600Z,29.91
2023-05-07T16:42:36.918Z,30.18
2023-05-07T16:45:06.790Z,30.23
2023-05-07T16:47:33.466Z,30.21
2023-05-07T16:50:00.650Z,30.12
2023-05-07T16:52:28.937Z,30.17
2023-05-07T16:54:58.247Z,30.18
2023-05-07T16:57:25.564Z,30.33
2023-05-07T16:59:52.572Z,30.63
2023-05-07T17:02:19.711Z,30.56
2023-05-07T17:04:46.213Z,30.26
2023-05-07T17:07:12.861Z,30.21
2023-05-07T17:09:39.409Z,30.37
2023-05-07T17:12:05.986Z,30.55
2023-05-07T17:14:32.489Z,30.46
2023-05-07T17:16:59.104Z,30.52
2023-05-07T17:19:25.714Z,30.57
2023-05-07T17:21:52.275Z,30.36
2023-05-07T17:24:18.816Z,30.73
2023-05-07T17:26:47.769Z,30.55
2023-05-07T17:29:14.297Z,30.46
2023-05-07T17:31:41.104Z,30.41
2023-05-07T17:34:07.704Z,30.53
2023-05-07T17:36:34.242Z,30.50
2023-05-07T17:39:00.937Z,30.65
2023-05-07T17:41:27.532Z,30.53
2023-05-07T17:43:54.060Z,30.50
2023-05-07T17:46:20.950Z,30.43
2023-05-07T17:48:47.725Z,30.47
2023-05-07T17:51:14.258Z,30.49
2023-05-07T17:53:40.827Z,30.25
2023-05-07T17:56:07.373Z,30.06
2023-05-07T17:58:38.454Z,30.07
2023-05-07T18:01:14.443Z,30.55
2023-05-07T18:03:41.406Z,30.67
2023-05-07T18:06:10.087Z,30.57
2023-05-07T18:08:36.830Z,30.57
2023-05-07T18:11:05.691Z,30.73
2023-05-07T18:13:32.205Z,30.78
2023-05-07T18:15:58.788Z,30.89
2023-05-07T18:18:28.116Z,30.75
2023-05-07T18:20:54.983Z,30.81
2023-05-07T18:23:21.473Z,30.76
2023-05-07T18:25:48.046Z,30.73
2023-05-07T18:28:14.619Z,30.80
2023-05-07T18:30:41.301Z,31.02
2023-05-07T18:33:08.177Z,31.19
2023-05-07T18:35:34.984Z,30.95
2023-05-07T18:38:01.472Z,30.92
2023-05-07T18:40:28.069Z,30.76
2023-05-07T18:42:55.373Z,30.80
2023-05-07T18:45:21.970Z,30.73
2023-05-07T18:47:48.559Z,30.75
2023-05-07T18:50:16.362Z,30.61
2023-05-07T18:52:42.867Z,30.41
2023-05-07T18:55:11.610Z,30.74
2023-05-07T18:57:38.131Z,30.60
2023-05-07T19:00:06.622Z,30.41
2023-05-07T19:02:33.234Z,30.46
2023-05-07T19:04:59.797Z,30.32
2023-05-07T19:07:26.300Z,30.37
2023-05-07T19:10:19.115Z,30.32
2023-05-07T19:12:39.432Z,30.43
2023-05-07T19:15:06.577Z,30.24
2023-05-07T19:17:33.189Z,29.96
2023-05-07T19:19:59.738Z,30.15
2023-05-07T19:22:26.374Z,30.23
2023-05-07T19:24:53.607Z,30.13
2023-05-07T19:27:20.202Z,29.94
2023-05-07T19:29:47.040Z,29.86
2023-05-07T19:32:13.617Z,29.74
2023-05-07T19:34:40.234Z,29.76
2023-05-07T19:37:06.801Z,29.69
2023-05-07T19:39:33.362Z,29.55
2023-05-07T19:41:59.945Z,29.59
2023-05-07T19:44:26.499Z,29.27
2023-05-07T19:46:53.081Z,29.17
2023-05-07T19:49:19.700Z,29.27
2023-05-07T19:51:46.295Z,29.39
2023-05-07T19:54:12.951Z,29.55
2023-05-07T19:56:41.598Z,29.71
2023-05-07T19:59:08.439Z,29.67
2023-05-07T20:01:36.089Z,29.44
2023-05-07T20:04:02.650Z,29.32
2023-05-07T20:06:29.235Z,29.21
2023-05-07T20:08:55.777Z,29.16
2023-05-07T20:11:23.206Z,29.25
2023-05-07T20:13:49.872Z,29.26
2023-05-07T20:16:16.594Z,29.10
2023-05-07T20:18:43.232Z,28.97
2023-05-07T20:21:09.844Z,29.03
2023-05-07T20:23:36.395Z,28.87
2023-05-07T20:26:02.925Z,28.89
2023-05-07T20:28:29.800Z,28.91
2023-05-07T20:30:56.388Z,29.05
2023-05-07T20:33:22.937Z,29.12
2023-05-07T20:35:49.753Z,29.19
2023-05-07T20:38:16.341Z,29.29
2023-05-07T20:40:42.889Z,29.01
2023-05-07T20:43:09.455Z,28.85
2023-05-07T20:45:36.099Z,28.73
2023-05-07T20:48:03.036Z,28.83
2023-05-07T20:50:29.890Z,28.68
2023-05-07T20:52:56.483Z,28.82
2023-05-07T20:55:23.038Z,28.91
2023-05-07T20:57:49.582Z,28.92
2023-05-07T21:00:17.333Z,28.74
2023-05-07T21:02:45.249Z,28.69
2023-05-07T21:05:11.916Z,28.59
2023-05-07T21:07:38.505Z,28.49
2023-05-07T21:10:06.111Z,28.36
2023-05-07T21:12:32.722Z,28.41
2023-05-07T21:14:59.318Z,28.46
2023-05-07T21:17:25.953Z,28.26
2023-05-07T21:19:52.899Z,28.06
2023-05-07T21:22:19.402Z,27.93
2023-05-07T21:24:45.963Z,28.07
2023-05-07T21:27:12.518Z,28.02
2023-05-07T21:29:39.457Z,28.03
2023-05-07T21:32:06.239Z,27.91
2023-05-07T21:34:32.826Z,27.90
2023-05-07T21:36:59.378Z,27.81
2023-05-07T21:39:26.029Z,27.85
2023-05-07T21:41:52.672Z,27.76
2023-05-07T21:44:19.306Z,27.73
2023-05-07T21:46:45.922Z,27.69
2023-05-07T21:49:12.737Z,27.67
2023-05-07T21:51:39.313Z,27.85
2023-05-07T21:54:06.858Z,27.87
2023-05-07T21:56:33.386Z,27.66
2023-05-07T21:58:59.953Z,27.66
2023-05-07T22:01:26.532Z,27.59
2023-05-07T22:03:53.303Z,27.57
2023-05-07T22:06:22.060Z,27.68
2023-05-07T22:08:49.791Z,27.73
2023-05-07T22:11:16.689Z,27.65
2023-05-07T22:13:43.380Z,27.63
2023-05-07T22:16:09.979Z,27.65
2023-05-07T22:18:36.620Z,27.65
2023-05-07T22:21:03.336Z,27.58
2023-05-07T22:23:29.860Z,27.50
2023-05-07T22:25:56.384Z,27.49
2023-05-07T22:28:22.944Z,27.37
2023-05-07T22:30:51.120Z,27.41
2023-05-07T22:33:17.732Z,27.44
2023-05-07T22:35:44.293Z,27.47
2023-05-07T22:38:10.842Z,27.56
2023-05-07T22:40:37.419Z,27.33
2023-05-07T22:43:04.126Z,27.42
2023-05-07T22:45:30.780Z,27.35
2023-05-07T22:47:57.329Z,27.36
2023-05-07T22:50:24.008Z,27.12
2023-05-07T22:52:50.718Z,27.01
2023-05-07T22:55:17.415Z,27.02
2023-05-07T22:57:44.046Z,27.15
2023-05-07T23:00:11.800Z,27.15
2023-05-07T23:02:38.713Z,27.32
2023-05-07T23:05:05.553Z,27.21
2023-05-07T23:07:32.153Z,26.95
2023-05-07T23:09:58.912Z,27.08
2023-05-07T23:12:25.532Z,27.28
2023-05-07T23:14:52.088Z,27.05
2023-05-07T23:17:18.613Z,27.34
2023-05-07T23:19:45.156Z,27.32
2023-05-07T23:22:12.231Z,27.26
2023-05-07T23:24:39.140Z,27.17
2023-05-07T23:27:06.085Z,27.24
2023-05-07T23:29:32.925Z,27.35
2023-05-07T23:32:00.231Z,27.20
2023-05-07T23:34:26.990Z,27.05
2023-05-07T23:36:54.245Z,27.01
2023-05-07T23:39:20.904Z,26.85
2023-05-07T23:41:47.535Z,27.03
2023-05-07T23:44:16.304Z,27.08
2023-05-07T23:46:44.414Z,27.26
2023-05-07T23:49:11.104Z,27.29
2023-05-07T23:51:37.844Z,27.31
2023-05-07T23:54:04.876Z,27.13
2023-05-07T23:56:31.458Z,27.10
2023-05-07T23:58:58.182Z,27.08
